createdAt,value
2018-08-14T00:00:07.405Z,46.70
2018-08-14T00:00:41.105Z,46.50
2018-08-14T00:01:13.779Z,46.60
2018-08-14T00:01:46.736Z,46.60
2018-08-14T00:02:19.427Z,46.40
2018-08-14T00:02:52.023Z,46.60
2018-08-14T00:03:24.711Z,46.70
2018-08-14T00:03:57.444Z,47.20
2018-08-14T00:04:30.214Z,46.70
2018-08-14T00:05:02.964Z,46.80
2018-08-14T00:05:36.142Z,47.30
2018-08-14T00:06:08.742Z,47.20
2018-08-14T00:06:41.566Z,47.30
2018-08-14T00:07:14.262Z,47.20
2018-08-14T00:07:46.907Z,47.20
2018-08-14T00:08:19.696Z,46.60
2018-08-14T00:08:52.318Z,46.70
2018-08-14T00:09:24.895Z,46.70
2018-08-14T00:09:57.450Z,47.40
2018-08-14T00:10:30.265Z,47.20
2018-08-14T00:11:02.890Z,47.20
2018-08-14T00:11:39.887Z,46.60
2018-08-14T00:12:12.582Z,46.50
2018-08-14T00:12:47.600Z,46.70
2018-08-14T00:13:20.338Z,46.60
2018-08-14T00:13:53.115Z,47.20
2018-08-14T00:14:25.687Z,47.20
2018-08-14T00:14:58.734Z,47.30
2018-08-14T00:15:31.635Z,46.60
2018-08-14T00:16:04.331Z,46.50
2018-08-14T00:16:37.155Z,46.60
2018-08-14T00:17:10.002Z,47.20
2018-08-14T00:17:43.262Z,46.50
2018-08-14T00:18:15.945Z,46.50
2018-08-14T00:18:48.584Z,46.70
2018-08-14T00:19:21.585Z,47.30
2018-08-14T00:19:54.148Z,46.70
2018-08-14T00:20:26.953Z,47.40
2018-08-14T00:20:59.806Z,47.30
2018-08-14T00:21:32.493Z,46.40
2018-08-14T00:22:05.286Z,46.50
2018-08-14T00:22:38.227Z,46.50
2018-08-14T00:23:10.884Z,46.60
2018-08-14T00:23:43.640Z,46.70
2018-08-14T00:24:16.516Z,46.70
2018-08-14T00:24:49.203Z,46.70
2018-08-14T00:25:22.222Z,46.60
2018-08-14T00:25:55.309Z,48.90
2018-08-14T00:26:28.320Z,46.50
2018-08-14T00:27:01.071Z,46.70
2018-08-14T00:27:36.122Z,46.70
2018-08-14T00:28:09.354Z,46.60
2018-08-14T00:28:42.037Z,46.50
2018-08-14T00:29:14.648Z,46.70
2018-08-14T00:29:47.187Z,47.30
2018-08-14T00:30:21.387Z,47.30
2018-08-14T00:30:54.168Z,47.20
2018-08-14T00:31:27.030Z,47.10
2018-08-14T00:31:59.727Z,46.90
2018-08-14T00:32:32.500Z,46.70
2018-08-14T00:33:05.445Z,47.30
2018-08-14T00:33:38.465Z,46.50
2018-08-14T00:34:11.096Z,46.40
2018-08-14T00:34:49.342Z,46.50
2018-08-14T00:35:22.248Z,46.70
2018-08-14T00:35:54.951Z,46.70
2018-08-14T00:36:27.715Z,46.70
2018-08-14T00:37:00.365Z,46.80
2018-08-14T00:37:33.062Z,47.20
2018-08-14T00:38:06.115Z,46.70
2018-08-14T00:38:38.780Z,46.80
2018-08-14T00:39:11.981Z,46.70
2018-08-14T00:39:44.597Z,47.20
2018-08-14T00:40:18.339Z,47.30
2018-08-14T00:40:50.985Z,46.70
2018-08-14T00:41:23.652Z,46.70
2018-08-14T00:41:57.035Z,46.70
2018-08-14T00:42:29.721Z,46.40
2018-08-14T00:43:03.025Z,46.80
2018-08-14T00:43:35.706Z,46.80
2018-08-14T00:44:08.438Z,47.20
2018-08-14T00:44:41.223Z,47.30
2018-08-14T00:45:15.615Z,46.70
2018-08-14T00:45:48.692Z,46.60
2018-08-14T00:46:21.474Z,46.50
2018-08-14T00:46:54.187Z,46.70
2018-08-14T00:47:26.814Z,46.70
2018-08-14T00:47:59.653Z,47.20
2018-08-14T00:48:32.429Z,47.40
2018-08-14T00:49:05.181Z,46.90
2018-08-14T00:49:37.891Z,46.70
2018-08-14T00:50:11.160Z,46.80
2018-08-14T00:50:43.847Z,46.70
2018-08-14T00:51:16.555Z,46.60
2018-08-14T00:51:51.524Z,47.30
2018-08-14T00:52:24.327Z,46.70
2018-08-14T00:52:57.142Z,46.70
2018-08-14T00:53:29.817Z,46.80
2018-08-14T00:54:02.759Z,47.40
2018-08-14T00:54:35.451Z,47.30
2018-08-14T00:55:08.836Z,46.80
2018-08-14T00:55:41.494Z,47.40
2018-08-14T00:56:14.302Z,46.90
2018-08-14T00:56:47.077Z,46.70
2018-08-14T00:57:19.838Z,46.90
2018-08-14T00:57:52.782Z,46.80
2018-08-14T00:58:26.409Z,47.30
2018-08-14T00:58:59.148Z,46.60
2018-08-14T00:59:31.788Z,46.60
2018-08-14T01:00:06.040Z,46.70
2018-08-14T01:00:38.678Z,46.80
2018-08-14T01:01:11.534Z,47.40
2018-08-14T01:01:45.038Z,46.90
2018-08-14T01:02:17.650Z,46.80
2018-08-14T01:02:51.162Z,46.90
2018-08-14T01:03:23.915Z,46.80
2018-08-14T01:03:56.829Z,46.50
2018-08-14T01:04:29.454Z,46.60
2018-08-14T01:05:02.176Z,47.40
2018-08-14T01:05:34.867Z,46.70
2018-08-14T01:06:07.552Z,47.30
2018-08-14T01:06:40.304Z,47.40
2018-08-14T01:07:13.023Z,47.20
2018-08-14T01:07:46.333Z,47.30
2018-08-14T01:08:19.160Z,46.80
2018-08-14T01:08:52.079Z,46.80
2018-08-14T01:09:24.762Z,46.60
2018-08-14T01:09:57.330Z,46.70
2018-08-14T01:10:30.191Z,47.20
2018-08-14T01:11:03.007Z,46.70
2018-08-14T01:11:35.616Z,47.30
2018-08-14T01:12:08.363Z,47.40
2018-08-14T01:12:47.070Z,46.80
2018-08-14T01:13:19.918Z,46.70
2018-08-14T01:13:52.670Z,46.50
2018-08-14T01:14:25.678Z,47.20
2018-08-14T01:14:58.474Z,46.80
2018-08-14T01:15:31.302Z,46.80
2018-08-14T01:16:04.011Z,46.70
2018-08-14T01:16:36.724Z,46.70
2018-08-14T01:17:09.302Z,46.70
2018-08-14T01:17:42.351Z,47.30
2018-08-14T01:18:14.988Z,47.30
2018-08-14T01:18:47.611Z,47.50
2018-08-14T01:19:20.267Z,46.80
2018-08-14T01:19:52.930Z,47.30
2018-08-14T01:20:26.831Z,46.90
2018-08-14T01:20:59.608Z,46.80
2018-08-14T01:21:32.467Z,46.90
2018-08-14T01:22:05.145Z,46.70
2018-08-14T01:22:37.936Z,46.80
2018-08-14T01:23:10.630Z,46.80
2018-08-14T01:23:43.430Z,47.30
2018-08-14T01:24:16.315Z,46.60
2018-08-14T01:24:49.236Z,46.70
2018-08-14T01:25:22.350Z,46.70
2018-08-14T01:25:55.136Z,46.80
2018-08-14T01:26:28.463Z,46.90
2018-08-14T01:27:02.131Z,46.80
2018-08-14T01:27:34.662Z,46.90
2018-08-14T01:28:07.204Z,46.90
2018-08-14T01:28:39.783Z,46.80
2018-08-14T01:29:12.350Z,46.80
2018-08-14T01:29:45.438Z,46.80
2018-08-14T01:30:21.589Z,46.80
2018-08-14T01:30:54.425Z,46.90
2018-08-14T01:31:26.980Z,46.80
2018-08-14T01:31:59.782Z,46.70
2018-08-14T01:32:32.362Z,46.70
2018-08-14T01:33:04.939Z,46.80
2018-08-14T01:33:37.718Z,46.80
2018-08-14T01:34:10.740Z,46.80
2018-08-14T01:34:43.403Z,46.80
2018-08-14T01:35:15.967Z,46.90
2018-08-14T01:35:48.947Z,47.50
2018-08-14T01:36:21.502Z,46.80
2018-08-14T01:36:54.080Z,46.80
2018-08-14T01:37:26.660Z,46.80
2018-08-14T01:37:59.423Z,46.90
2018-08-14T01:38:32.025Z,46.80
2018-08-14T01:39:12.344Z,46.90
2018-08-14T01:39:45.069Z,47.00
2018-08-14T01:40:17.948Z,46.80
2018-08-14T01:40:50.660Z,47.00
2018-08-14T01:41:23.232Z,47.00
2018-08-14T01:41:55.792Z,46.90
2018-08-14T01:42:28.358Z,46.90
2018-08-14T01:43:00.987Z,46.80
2018-08-14T01:43:33.553Z,47.00
2018-08-14T01:44:06.243Z,46.90
2018-08-14T01:44:38.744Z,46.90
2018-08-14T01:45:13.387Z,46.80
2018-08-14T01:45:45.926Z,46.90
2018-08-14T01:46:18.647Z,46.90
2018-08-14T01:46:51.193Z,46.90
2018-08-14T01:47:23.761Z,46.90
2018-08-14T01:47:56.504Z,46.80
2018-08-14T01:48:29.130Z,47.00
2018-08-14T01:49:01.731Z,46.90
2018-08-14T01:49:34.827Z,46.90
2018-08-14T01:50:08.563Z,46.90
2018-08-14T01:50:41.284Z,46.90
2018-08-14T01:51:13.878Z,46.90
2018-08-14T01:51:46.450Z,46.80
2018-08-14T01:52:18.984Z,47.00
2018-08-14T01:52:51.615Z,46.90
2018-08-14T01:53:24.267Z,46.90
2018-08-14T01:53:56.873Z,46.90
2018-08-14T01:54:29.443Z,46.90
2018-08-14T01:55:02.083Z,46.90
2018-08-14T01:55:34.739Z,46.70
2018-08-14T01:56:07.274Z,46.70
2018-08-14T01:56:39.820Z,46.70
2018-08-14T01:57:12.383Z,46.90
2018-08-14T01:57:45.117Z,46.80
2018-08-14T01:58:17.716Z,46.80
2018-08-14T01:58:50.284Z,46.90
2018-08-14T01:59:22.850Z,46.80
2018-08-14T01:59:55.436Z,46.90
2018-08-14T02:00:27.991Z,46.70
2018-08-14T02:01:00.551Z,46.80
2018-08-14T02:01:33.183Z,46.90
2018-08-14T02:02:06.077Z,47.00
2018-08-14T02:02:38.800Z,46.90
2018-08-14T02:03:11.383Z,46.90
2018-08-14T02:03:44.006Z,46.90
2018-08-14T02:04:16.617Z,46.90
2018-08-14T02:04:49.182Z,46.90
2018-08-14T02:05:21.771Z,46.80
2018-08-14T02:05:54.381Z,46.80
2018-08-14T02:06:26.961Z,46.80
2018-08-14T02:06:59.548Z,47.00
2018-08-14T02:07:32.155Z,46.80
2018-08-14T02:08:04.983Z,46.80
2018-08-14T02:08:37.900Z,46.80
2018-08-14T02:09:10.489Z,46.90
2018-08-14T02:09:44.522Z,46.80
2018-08-14T02:10:17.834Z,47.00
2018-08-14T02:10:50.474Z,46.90
2018-08-14T02:11:23.006Z,46.90
2018-08-14T02:11:55.776Z,46.70
2018-08-14T02:12:28.327Z,46.70
2018-08-14T02:13:00.887Z,46.70
2018-08-14T02:13:35.107Z,46.80
2018-08-14T02:14:07.740Z,46.70
2018-08-14T02:14:40.598Z,46.80
2018-08-14T02:15:14.584Z,46.80
2018-08-14T02:15:47.204Z,46.80
2018-08-14T02:16:19.751Z,46.80
2018-08-14T02:16:52.331Z,46.90
2018-08-14T02:17:24.944Z,46.90
2018-08-14T02:17:57.566Z,46.90
2018-08-14T02:18:30.152Z,46.90
2018-08-14T02:19:02.827Z,46.90
2018-08-14T02:19:35.420Z,46.90
2018-08-14T02:20:09.230Z,46.80
2018-08-14T02:20:41.806Z,47.00
2018-08-14T02:21:15.023Z,47.00
2018-08-14T02:21:47.606Z,47.00
2018-08-14T02:22:20.311Z,46.90
2018-08-14T02:22:55.109Z,46.90
2018-08-14T02:23:27.661Z,47.00
2018-08-14T02:24:00.231Z,46.90
2018-08-14T02:24:32.817Z,46.90
2018-08-14T02:25:05.426Z,46.90
2018-08-14T02:25:37.967Z,46.90
2018-08-14T02:26:10.554Z,46.90
2018-08-14T02:26:43.181Z,47.00
2018-08-14T02:27:16.035Z,47.00
2018-08-14T02:27:48.667Z,47.00
2018-08-14T02:28:21.330Z,47.00
2018-08-14T02:28:53.862Z,47.00
2018-08-14T02:29:26.440Z,46.90
2018-08-14T02:29:59.028Z,46.90
2018-08-14T02:30:31.595Z,46.90
2018-08-14T02:31:04.648Z,46.90
2018-08-14T02:31:37.358Z,47.00
2018-08-14T02:32:10.005Z,47.10
2018-08-14T02:32:42.814Z,47.00
2018-08-14T02:33:15.371Z,47.10
2018-08-14T02:33:47.957Z,46.90
2018-08-14T02:34:20.575Z,46.80
2018-08-14T02:34:53.106Z,46.90
2018-08-14T02:35:25.667Z,47.10
2018-08-14T02:35:58.652Z,47.10
2018-08-14T02:36:31.302Z,47.20
2018-08-14T02:37:03.890Z,47.20
2018-08-14T02:37:37.626Z,47.10
2018-08-14T02:38:10.425Z,47.10
2018-08-14T02:38:43.080Z,47.10
2018-08-14T02:39:15.612Z,47.20
2018-08-14T02:39:48.209Z,47.10
2018-08-14T02:40:21.960Z,47.10
2018-08-14T02:40:54.733Z,47.10
2018-08-14T02:41:27.405Z,47.20
2018-08-14T02:41:59.998Z,47.10
2018-08-14T02:42:32.755Z,47.10
2018-08-14T02:43:05.320Z,47.20
2018-08-14T02:43:38.051Z,47.10
2018-08-14T02:44:10.609Z,47.10
2018-08-14T02:44:43.151Z,47.10
2018-08-14T02:45:15.827Z,47.10
2018-08-14T02:45:48.577Z,47.10
2018-08-14T02:46:21.183Z,47.00
2018-08-14T02:46:53.733Z,47.10
2018-08-14T02:47:26.523Z,47.10
2018-08-14T02:47:59.140Z,47.20
2018-08-14T02:48:31.954Z,47.20
2018-08-14T02:49:04.653Z,47.10
2018-08-14T02:49:37.491Z,47.20
2018-08-14T02:50:10.223Z,47.10
2018-08-14T02:50:42.871Z,47.10
2018-08-14T02:51:15.531Z,47.10
2018-08-14T02:51:48.387Z,47.10
2018-08-14T02:52:21.026Z,47.20
2018-08-14T02:52:53.738Z,47.20
2018-08-14T02:53:59.104Z,47.20
2018-08-14T02:54:32.692Z,46.50
2018-08-14T02:55:05.795Z,47.10
2018-08-14T02:55:38.468Z,47.20
2018-08-14T02:56:11.070Z,47.20
2018-08-14T02:56:43.603Z,47.10
2018-08-14T02:57:16.149Z,47.10
2018-08-14T02:57:48.891Z,47.10
2018-08-14T02:58:21.495Z,47.20
2018-08-14T02:58:54.019Z,47.20
2018-08-14T02:59:26.610Z,47.10
2018-08-14T02:59:59.193Z,47.10
2018-08-14T03:00:32.002Z,47.10
2018-08-14T03:01:04.858Z,47.10
2018-08-14T03:01:37.496Z,47.00
2018-08-14T03:02:10.226Z,47.00
2018-08-14T03:02:42.763Z,47.20
2018-08-14T03:03:15.487Z,47.20
2018-08-14T03:03:48.080Z,47.10
2018-08-14T03:04:20.645Z,47.20
2018-08-14T03:04:53.195Z,47.20
2018-08-14T03:05:26.232Z,47.10
2018-08-14T03:05:58.954Z,47.10
2018-08-14T03:06:31.535Z,47.20
2018-08-14T03:07:04.259Z,47.20
2018-08-14T03:07:36.819Z,47.30
2018-08-14T03:08:09.446Z,46.70
2018-08-14T03:08:42.192Z,47.30
2018-08-14T03:09:14.795Z,47.20
2018-08-14T03:09:47.505Z,47.30
2018-08-14T03:10:20.062Z,47.20
2018-08-14T03:10:52.684Z,47.20
2018-08-14T03:11:25.249Z,47.20
2018-08-14T03:11:57.864Z,47.10
2018-08-14T03:12:30.442Z,47.20
2018-08-14T03:13:03.069Z,47.20
2018-08-14T03:13:35.645Z,47.10
2018-08-14T03:14:08.834Z,47.10
2018-08-14T03:14:41.554Z,47.10
2018-08-14T03:15:14.902Z,47.20
2018-08-14T03:15:47.437Z,47.20
2018-08-14T03:16:20.005Z,47.20
2018-08-14T03:16:52.543Z,47.10
2018-08-14T03:17:25.931Z,47.10
2018-08-14T03:17:58.549Z,47.20
2018-08-14T03:18:31.084Z,47.10
2018-08-14T03:19:04.042Z,47.10
2018-08-14T03:19:38.489Z,47.10
2018-08-14T03:20:11.264Z,47.10
2018-08-14T03:20:43.964Z,47.30
2018-08-14T03:21:16.496Z,47.20
2018-08-14T03:21:49.056Z,47.20
2018-08-14T03:22:21.602Z,47.40
2018-08-14T03:22:54.553Z,47.20
2018-08-14T03:23:27.168Z,47.00
2018-08-14T03:24:00.339Z,47.20
2018-08-14T03:24:32.886Z,47.10
2018-08-14T03:25:05.874Z,47.20
2018-08-14T03:25:38.478Z,47.10
2018-08-14T03:26:11.112Z,47.30
2018-08-14T03:26:43.727Z,47.30
2018-08-14T03:27:16.277Z,47.20
2018-08-14T03:27:49.155Z,47.20
2018-08-14T03:28:21.683Z,47.30
2018-08-14T03:28:54.420Z,47.30
2018-08-14T03:29:27.111Z,47.40
2018-08-14T03:29:59.658Z,47.10
2018-08-14T03:30:32.187Z,47.20
2018-08-14T03:31:04.816Z,47.20
2018-08-14T03:31:37.571Z,47.20
2018-08-14T03:32:10.294Z,47.30
2018-08-14T03:32:43.203Z,47.20
2018-08-14T03:33:15.759Z,47.30
2018-08-14T03:33:48.479Z,47.20
2018-08-14T03:34:21.223Z,47.20
2018-08-14T03:34:53.818Z,47.30
2018-08-14T03:35:26.454Z,47.20
2018-08-14T03:35:59.055Z,47.10
2018-08-14T03:36:31.694Z,47.20
2018-08-14T03:37:04.254Z,47.30
2018-08-14T03:37:36.807Z,47.20
2018-08-14T03:38:09.382Z,47.20
2018-08-14T03:38:41.964Z,47.30
2018-08-14T03:39:14.516Z,47.30
2018-08-14T03:39:47.125Z,47.30
2018-08-14T03:40:20.206Z,47.30
2018-08-14T03:40:53.032Z,47.30
2018-08-14T03:41:25.840Z,47.20
2018-08-14T03:41:58.647Z,47.30
2018-08-14T03:42:31.362Z,47.30
2018-08-14T03:43:03.934Z,47.20
2018-08-14T03:43:36.470Z,47.40
2018-08-14T03:44:09.145Z,47.30
2018-08-14T03:44:41.836Z,47.20
2018-08-14T03:45:14.453Z,47.20
2018-08-14T03:45:47.056Z,47.30
2018-08-14T03:46:19.738Z,47.30
2018-08-14T03:46:52.288Z,47.20
2018-08-14T03:47:24.880Z,47.30
2018-08-14T03:47:57.495Z,47.30
2018-08-14T03:48:30.063Z,47.20
2018-08-14T03:49:02.912Z,47.20
2018-08-14T03:49:35.655Z,47.30
2018-08-14T03:50:08.464Z,47.30
2018-08-14T03:50:41.142Z,47.30
2018-08-14T03:51:13.820Z,47.30
2018-08-14T03:51:46.477Z,47.20
2018-08-14T03:52:19.098Z,47.10
2018-08-14T03:52:51.875Z,47.20
2018-08-14T03:53:24.547Z,47.30
2018-08-14T03:53:57.147Z,47.10
2018-08-14T03:54:29.732Z,47.30
2018-08-14T03:55:02.262Z,47.30
2018-08-14T03:55:34.855Z,47.30
2018-08-14T03:56:14.258Z,47.30
2018-08-14T03:56:46.853Z,47.20
2018-08-14T03:57:19.426Z,47.20
2018-08-14T03:57:51.970Z,47.20
2018-08-14T03:58:24.636Z,47.30
2018-08-14T03:58:57.197Z,47.30
2018-08-14T03:59:29.883Z,47.30
2018-08-14T04:00:02.576Z,47.20
2018-08-14T04:00:36.724Z,47.30
2018-08-14T04:01:09.457Z,47.30
2018-08-14T04:01:42.002Z,47.30
2018-08-14T04:02:14.581Z,47.30
2018-08-14T04:02:47.138Z,47.30
2018-08-14T04:03:19.670Z,47.30
2018-08-14T04:03:52.413Z,47.30
2018-08-14T04:04:25.011Z,47.50
2018-08-14T04:04:57.736Z,47.30
2018-08-14T04:05:30.886Z,47.30
2018-08-14T04:06:04.137Z,47.20
2018-08-14T04:06:37.983Z,47.20
2018-08-14T04:07:10.613Z,47.10
2018-08-14T04:07:43.899Z,47.30
2018-08-14T04:08:17.442Z,48.10
2018-08-14T04:08:50.046Z,47.40
2018-08-14T04:09:22.623Z,47.30
2018-08-14T04:09:55.155Z,47.40
2018-08-14T04:10:28.023Z,47.30
2018-08-14T04:11:00.578Z,47.40
2018-08-14T04:11:33.176Z,47.50
2018-08-14T04:12:05.703Z,47.60
2018-08-14T04:12:38.594Z,47.40
2018-08-14T04:13:11.193Z,47.70
2018-08-14T04:13:45.968Z,47.70
2018-08-14T04:14:19.636Z,47.80
2018-08-14T04:14:52.211Z,48.50
2018-08-14T04:15:25.004Z,48.50
2018-08-14T04:15:57.668Z,47.80
2018-08-14T04:16:30.196Z,47.70
2018-08-14T04:17:02.889Z,47.60
2018-08-14T04:17:35.672Z,47.60
2018-08-14T04:18:08.986Z,47.60
2018-08-14T04:18:41.569Z,47.70
2018-08-14T04:19:14.230Z,47.70
2018-08-14T04:19:46.906Z,47.60
2018-08-14T04:20:19.481Z,47.60
2018-08-14T04:20:52.121Z,47.60
2018-08-14T04:21:25.174Z,47.60
2018-08-14T04:21:57.803Z,47.60
2018-08-14T04:22:30.458Z,47.70
2018-08-14T04:23:03.032Z,47.70
2018-08-14T04:23:35.618Z,47.80
2018-08-14T04:24:09.447Z,47.80
2018-08-14T04:24:42.075Z,47.80
2018-08-14T04:25:14.647Z,47.80
2018-08-14T04:25:47.371Z,47.90
2018-08-14T04:26:19.982Z,47.80
2018-08-14T04:26:52.601Z,47.80
2018-08-14T04:27:25.292Z,47.60
2018-08-14T04:27:57.859Z,48.10
2018-08-14T04:28:30.423Z,48.00
2018-08-14T04:29:02.990Z,48.00
2018-08-14T04:29:35.596Z,48.00
2018-08-14T04:30:12.187Z,48.00
2018-08-14T04:30:44.912Z,48.00
2018-08-14T04:31:17.453Z,48.00
2018-08-14T04:31:50.083Z,48.10
2018-08-14T04:32:22.675Z,48.20
2018-08-14T04:32:55.230Z,48.10
2018-08-14T04:33:30.515Z,48.10
2018-08-14T04:34:03.436Z,48.00
2018-08-14T04:34:35.982Z,48.10
2018-08-14T04:35:12.350Z,48.10
2018-08-14T04:35:44.918Z,48.10
2018-08-14T04:36:18.120Z,48.10
2018-08-14T04:36:50.635Z,48.10
2018-08-14T04:37:23.315Z,48.10
2018-08-14T04:37:55.856Z,48.10
2018-08-14T04:38:28.427Z,48.20
2018-08-14T04:39:01.047Z,48.10
2018-08-14T04:39:33.629Z,48.20
2018-08-14T04:40:07.123Z,48.10
2018-08-14T04:40:39.722Z,48.60
2018-08-14T04:41:12.340Z,48.10
2018-08-14T04:41:44.983Z,48.00
2018-08-14T04:42:17.547Z,48.20
2018-08-14T04:42:50.200Z,48.20
2018-08-14T04:43:22.809Z,48.00
2018-08-14T04:43:55.392Z,48.10
2018-08-14T04:44:28.108Z,48.10
2018-08-14T04:45:00.684Z,48.10
2018-08-14T04:45:34.040Z,48.20
2018-08-14T04:46:06.659Z,48.20
2018-08-14T04:46:41.344Z,48.00
2018-08-14T04:47:14.693Z,48.10
2018-08-14T04:47:47.428Z,48.00
2018-08-14T04:48:22.493Z,48.00
2018-08-14T04:48:55.598Z,48.10
2018-08-14T04:49:28.655Z,48.80
2018-08-14T04:50:01.537Z,48.10
2018-08-14T04:50:34.176Z,48.10
2018-08-14T04:51:06.816Z,48.10
2018-08-14T04:51:39.616Z,48.10
2018-08-14T04:52:12.222Z,48.00
2018-08-14T04:52:45.003Z,48.40
2018-08-14T04:53:17.604Z,48.20
2018-08-14T04:53:50.297Z,48.20
2018-08-14T04:54:23.421Z,48.10
2018-08-14T04:54:56.221Z,48.10
2018-08-14T04:55:28.860Z,48.20
2018-08-14T04:56:01.422Z,48.10
2018-08-14T04:56:34.028Z,48.20
2018-08-14T04:57:06.592Z,48.10
2018-08-14T04:57:39.370Z,48.20
2018-08-14T04:58:11.964Z,48.60
2018-08-14T04:58:44.882Z,48.20
2018-08-14T04:59:17.576Z,48.50
2018-08-14T04:59:50.138Z,48.20
2018-08-14T05:00:22.804Z,48.20
2018-08-14T05:00:55.429Z,48.20
2018-08-14T05:01:28.338Z,48.30
2018-08-14T05:02:01.023Z,48.20
2018-08-14T05:02:33.605Z,48.10
2018-08-14T05:03:07.274Z,48.30
2018-08-14T05:03:39.896Z,48.30
2018-08-14T05:04:12.528Z,48.10
2018-08-14T05:04:45.125Z,48.30
2018-08-14T05:05:17.851Z,48.40
2018-08-14T05:05:50.428Z,48.40
2018-08-14T05:06:23.066Z,48.50
2018-08-14T05:06:55.661Z,48.40
2018-08-14T05:07:28.244Z,48.40
2018-08-14T05:08:01.172Z,48.40
2018-08-14T05:08:33.968Z,48.30
2018-08-14T05:09:13.292Z,48.40
2018-08-14T05:09:46.347Z,48.20
2018-08-14T05:10:19.108Z,48.30
2018-08-14T05:10:51.741Z,48.30
2018-08-14T05:11:24.332Z,48.20
2018-08-14T05:11:57.981Z,48.40
2018-08-14T05:12:30.629Z,48.30
2018-08-14T05:13:03.254Z,48.40
2018-08-14T05:13:40.503Z,48.20
2018-08-14T05:14:13.106Z,48.20
2018-08-14T05:14:46.008Z,48.20
2018-08-14T05:15:19.023Z,48.30
2018-08-14T05:15:52.512Z,48.20
2018-08-14T05:16:26.085Z,48.20
2018-08-14T05:16:58.688Z,48.40
2018-08-14T05:17:32.012Z,48.30
2018-08-14T05:18:05.110Z,48.20
2018-08-14T05:18:39.038Z,48.20
2018-08-14T05:19:11.662Z,48.60
2018-08-14T05:19:44.246Z,48.40
2018-08-14T05:20:28.956Z,48.40
2018-08-14T05:21:03.236Z,48.40
2018-08-14T05:21:36.272Z,48.40
2018-08-14T05:22:09.654Z,48.20
2018-08-14T05:23:49.390Z,48.20
2018-08-14T05:59:58.030Z,48.60
2018-08-14T06:00:30.861Z,49.40
2018-08-14T06:01:04.589Z,49.00
2018-08-14T06:01:47.062Z,50.40
2018-08-14T06:02:19.971Z,52.00
2018-08-14T06:04:06.479Z,48.40
2018-08-14T06:06:26.907Z,48.40
2018-08-14T06:07:11.582Z,48.10
2018-08-14T06:07:45.410Z,48.40
2018-08-14T06:09:25.687Z,49.00
2018-08-14T06:09:58.827Z,48.50
2018-08-14T06:11:43.278Z,48.50
2018-08-14T06:12:16.074Z,48.50
2018-08-14T06:12:48.912Z,48.50
2018-08-14T06:13:29.774Z,49.20
2018-08-14T06:14:02.646Z,48.60
2018-08-14T06:14:35.525Z,49.60
2018-08-14T06:15:09.196Z,48.60
2018-08-14T06:15:42.026Z,48.60
2018-08-14T06:16:20.571Z,49.30
2018-08-14T06:16:54.150Z,48.60
2018-08-14T06:17:31.553Z,48.90
2018-08-14T06:18:05.259Z,49.10
2018-08-14T06:18:38.399Z,48.80
2018-08-14T06:19:11.157Z,48.70
2018-08-14T06:19:44.152Z,49.80
2018-08-14T06:20:17.023Z,49.00
2018-08-14T06:20:51.384Z,49.10
2018-08-14T06:21:29.897Z,47.50
2018-08-14T06:22:03.608Z,49.50
2018-08-14T06:22:36.855Z,51.10
2018-08-14T06:23:17.161Z,49.40
2018-08-14T06:23:51.805Z,49.30
2018-08-14T06:24:24.611Z,48.90
2018-08-14T06:24:58.462Z,48.90
2018-08-14T06:25:31.182Z,50.10
2018-08-14T06:26:03.998Z,50.00
2018-08-14T06:26:42.643Z,49.20
2018-08-14T06:27:15.679Z,52.60
2018-08-14T06:27:48.356Z,48.80
2018-08-14T06:28:21.284Z,49.70
2018-08-14T06:28:54.331Z,49.40
2018-08-14T06:29:33.359Z,48.70
2018-08-14T06:30:13.055Z,50.10
2018-08-14T06:30:45.987Z,49.90
2018-08-14T06:31:18.775Z,48.90
2018-08-14T06:31:51.474Z,48.90
2018-08-14T06:32:24.171Z,48.80
2018-08-14T06:32:56.959Z,49.40
2018-08-14T06:33:29.746Z,48.60
2018-08-14T06:34:02.550Z,48.80
2018-08-14T06:34:35.602Z,49.40
2018-08-14T06:35:08.386Z,49.50
2018-08-14T06:35:41.346Z,48.90
2018-08-14T06:36:14.037Z,48.50
2018-08-14T06:36:46.818Z,49.30
2018-08-14T06:37:19.554Z,49.20
2018-08-14T06:37:52.343Z,49.30
2018-08-14T06:38:25.007Z,48.80
2018-08-14T06:38:57.879Z,49.10
2018-08-14T06:39:30.596Z,49.20
2018-08-14T06:40:03.510Z,49.30
2018-08-14T06:40:36.163Z,48.60
2018-08-14T06:41:08.916Z,49.30
2018-08-14T06:41:41.685Z,49.50
2018-08-14T06:42:14.460Z,49.50
2018-08-14T06:42:47.314Z,49.30
2018-08-14T06:43:20.134Z,48.80
2018-08-14T06:43:52.839Z,49.20
2018-08-14T06:44:25.562Z,48.60
2018-08-14T06:44:58.367Z,49.30
2018-08-14T06:45:31.096Z,49.40
2018-08-14T06:46:03.849Z,49.40
2018-08-14T06:46:36.583Z,49.40
2018-08-14T06:47:09.398Z,49.40
2018-08-14T06:47:42.460Z,49.00
2018-08-14T06:48:15.188Z,49.10
2018-08-14T06:48:48.005Z,49.60
2018-08-14T06:49:21.285Z,49.30
2018-08-14T06:49:53.972Z,48.70
2018-08-14T06:50:26.674Z,49.40
2018-08-14T06:50:59.348Z,49.20
2018-08-14T06:51:32.134Z,49.60
2018-08-14T06:52:04.863Z,49.60
2018-08-14T06:52:37.662Z,49.60
2018-08-14T06:53:10.431Z,49.70
2018-08-14T06:53:43.135Z,49.00
2018-08-14T06:54:15.749Z,48.80
2018-08-14T06:54:48.669Z,49.30
2018-08-14T06:55:21.485Z,49.30
2018-08-14T06:55:54.274Z,48.60
2018-08-14T06:56:27.131Z,48.60
2018-08-14T06:56:59.873Z,48.90
2018-08-14T06:57:32.617Z,49.90
2018-08-14T06:58:05.395Z,49.50
2018-08-14T06:58:38.183Z,49.40
2018-08-14T06:59:10.836Z,49.50
2018-08-14T06:59:43.692Z,49.40
2018-08-14T07:00:17.229Z,48.90
2018-08-14T07:00:49.869Z,49.50
2018-08-14T07:02:19.152Z,49.10
2018-08-14T07:02:51.953Z,48.80
2018-08-14T07:03:24.753Z,48.50
2018-08-14T07:03:57.458Z,48.50
2018-08-14T07:04:30.142Z,48.70
2018-08-14T07:05:02.806Z,49.00
2018-08-14T07:05:35.663Z,49.40
2018-08-14T07:06:08.386Z,49.00
2018-08-14T07:06:41.167Z,49.30
2018-08-14T07:07:13.948Z,49.20
2018-08-14T07:07:46.852Z,49.20
2018-08-14T07:08:19.484Z,49.30
2018-08-14T07:08:52.287Z,49.60
2018-08-14T07:09:25.025Z,49.00
2018-08-14T07:09:58.455Z,48.70
2018-08-14T07:10:31.247Z,48.80
2018-08-14T07:11:04.031Z,48.90
2018-08-14T07:11:36.688Z,48.60
2018-08-14T07:12:09.539Z,48.80
2018-08-14T07:12:42.314Z,48.90
2018-08-14T07:13:14.993Z,49.60
2018-08-14T07:13:47.680Z,49.30
2018-08-14T07:14:20.446Z,49.50
2018-08-14T07:14:53.477Z,49.50
2018-08-14T07:15:26.274Z,48.90
2018-08-14T07:15:59.309Z,48.90
2018-08-14T07:16:32.190Z,48.50
2018-08-14T07:17:04.867Z,48.90
2018-08-14T07:17:37.515Z,48.40
2018-08-14T07:18:10.248Z,48.80
2018-08-14T07:18:42.886Z,49.80
2018-08-14T07:19:15.582Z,49.80
2018-08-14T07:19:48.314Z,49.90
2018-08-14T07:20:21.162Z,50.00
2018-08-14T07:20:54.082Z,49.60
2018-08-14T07:21:26.789Z,49.50
2018-08-14T07:21:59.531Z,49.40
2018-08-14T07:22:32.354Z,49.20
2018-08-14T07:23:05.236Z,49.30
2018-08-14T07:23:37.905Z,49.80
2018-08-14T07:24:10.521Z,49.90
2018-08-14T07:24:43.670Z,49.50
2018-08-14T07:25:17.661Z,49.60
2018-08-14T07:25:50.444Z,49.20
2018-08-14T07:26:23.061Z,49.50
2018-08-14T07:26:57.685Z,49.00
2018-08-14T07:27:30.369Z,49.00
2018-08-14T07:28:03.148Z,49.30
2018-08-14T07:28:35.802Z,49.20
2018-08-14T07:29:08.424Z,49.20
2018-08-14T07:29:41.274Z,49.30
2018-08-14T07:30:15.859Z,49.80
2018-08-14T07:30:48.519Z,49.20
2018-08-14T07:31:21.263Z,50.00
2018-08-14T07:31:54.002Z,49.40
2018-08-14T07:32:26.766Z,49.30
2018-08-14T07:32:59.419Z,49.10
2018-08-14T07:33:32.213Z,49.80
2018-08-14T07:34:05.017Z,50.00
2018-08-14T07:34:37.739Z,49.00
2018-08-14T07:35:10.599Z,49.70
2018-08-14T07:35:43.273Z,49.70
2018-08-14T07:36:16.246Z,49.70
2018-08-14T07:36:49.137Z,48.90
2018-08-14T07:37:21.981Z,50.60
2018-08-14T07:37:55.025Z,49.00
2018-08-14T07:38:27.718Z,46.70
2018-08-14T07:39:00.489Z,48.90
2018-08-14T07:39:33.387Z,48.80
2018-08-14T07:40:07.336Z,48.90
2018-08-14T07:40:39.979Z,49.00
2018-08-14T07:41:12.808Z,48.60
2018-08-14T07:41:45.534Z,48.70
2018-08-14T07:42:18.583Z,48.70
2018-08-14T07:42:51.627Z,49.00
2018-08-14T07:43:24.505Z,48.80
2018-08-14T07:43:58.430Z,48.90
2018-08-14T07:44:31.105Z,49.50
2018-08-14T07:45:04.694Z,49.30
2018-08-14T07:45:37.410Z,49.40
2018-08-14T07:46:10.256Z,49.30
2018-08-14T07:46:43.057Z,48.60
2018-08-14T07:47:16.242Z,46.20
2018-08-14T07:47:48.910Z,48.70
2018-08-14T07:48:21.688Z,49.00